sensor_id;sensor_type;location;lat;lon;timestamp;P1;durP1;ratioP1;P2;durP2;ratioP2
46757;SDS011;32509;47.750;-3.396;2022-09-27T00:02:18;10.07;;;2.97;;
46757;SDS011;32509;47.750;-3.396;2022-09-27T00:04:44;9.10;;;3.13;;
46757;SDS011;32509;47.750;-3.396;2022-09-27T00:07:10;8.95;;;3.03;;
46757;SDS011;32509;47.750;-3.396;2022-09-27T00:09:36;7.90;;;3.30;;
46757;SDS011;32509;47.750;-3.396;2022-09-27T00:12:03;10.95;;;2.80;;
46757;SDS011;32509;47.750;-3.396;2022-09-27T00:14:29;9.43;;;2.60;;
46757;SDS011;32509;47.750;-3.396;2022-09-27T00:16:55;9.70;;;3.05;;
46757;SDS011;32509;47.750;-3.396;2022-09-27T00:19:21;10.80;;;3.00;;
46757;SDS011;32509;47.750;-3.396;2022-09-27T00:21:48;14.35;;;3.58;;
46757;SDS011;32509;47.750;-3.396;2022-09-27T00:24:18;10.15;;;3.15;;
46757;SDS011;32509;47.750;-3.396;2022-09-27T00:26:45;9.18;;;2.60;;
46757;SDS011;32509;47.750;-3.396;2022-09-27T00:29:11;10.35;;;3.33;;
46757;SDS011;32509;47.750;-3.396;2022-09-27T00:31:38;10.63;;;3.05;;
46757;SDS011;32509;47.750;-3.396;2022-09-27T00:34:04;9.27;;;2.85;;
46757;SDS011;32509;47.750;-3.396;2022-09-27T00:36:31;7.95;;;2.80;;
46757;SDS011;32509;47.750;-3.396;2022-09-27T00:38:58;8.98;;;2.97;;
46757;SDS011;32509;47.750;-3.396;2022-09-27T00:41:25;14.85;;;3.15;;
46757;SDS011;32509;47.750;-3.396;2022-09-27T00:43:53;9.05;;;3.08;;
46757;SDS011;32509;47.750;-3.396;2022-09-27T00:46:21;10.48;;;2.83;;
46757;SDS011;32509;47.750;-3.396;2022-09-27T00:48:48;11.43;;;2.72;;
46757;SDS011;32509;47.750;-3.396;2022-09-27T00:51:16;12.57;;;2.88;;
46757;SDS011;32509;47.750;-3.396;2022-09-27T00:53:47;13.18;;;4.10;;
46757;SDS011;32509;47.750;-3.396;2022-09-27T00:56:19;9.80;;;2.70;;
46757;SDS011;32509;47.750;-3.396;2022-09-27T00:58:50;7.65;;;2.58;;
46757;SDS011;32509;47.750;-3.396;2022-09-27T01:01:18;14.30;;;3.13;;
46757;SDS011;32509;47.750;-3.396;2022-09-27T01:03:52;10.65;;;3.28;;
46757;SDS011;32509;47.750;-3.396;2022-09-27T01:06:21;8.48;;;3.58;;
46757;SDS011;32509;47.750;-3.396;2022-09-27T01:08:47;9.48;;;3.28;;
46757;SDS011;32509;47.750;-3.396;2022-09-27T01:14:10;9.55;;;2.58;;
46757;SDS011;32509;47.750;-3.396;2022-09-27T01:24:50;13.27;;;3.50;;
46757;SDS011;32509;47.750;-3.396;2022-09-27T01:32:17;7.90;;;3.00;;
46757;SDS011;32509;47.750;-3.396;2022-09-27T01:34:51;9.38;;;2.75;;
46757;SDS011;32509;47.750;-3.396;2022-09-27T01:42:24;10.52;;;2.97;;
46757;SDS011;32509;47.750;-3.396;2022-09-27T01:47:28;7.05;;;2.05;;
46757;SDS011;32509;47.750;-3.396;2022-09-27T01:50:04;9.00;;;2.85;;
46757;SDS011;32509;47.750;-3.396;2022-09-27T01:52:34;9.10;;;2.97;;
46757;SDS011;32509;47.750;-3.396;2022-09-27T01:55:02;14.40;;;2.65;;
46757;SDS011;32509;47.750;-3.396;2022-09-27T01:57:31;12.05;;;2.97;;
46757;SDS011;32509;47.750;-3.396;2022-09-27T02:00:04;9.20;;;3.15;;
46757;SDS011;32509;47.750;-3.396;2022-09-27T02:02:32;7.75;;;1.98;;
46757;SDS011;32509;47.750;-3.396;2022-09-27T02:05:01;8.57;;;2.33;;
46757;SDS011;32509;47.750;-3.396;2022-09-27T02:07:30;6.60;;;2.50;;
46757;SDS011;32509;47.750;-3.396;2022-09-27T02:10:02;8.20;;;2.10;;
46757;SDS011;32509;47.750;-3.396;2022-09-27T02:12:30;5.78;;;2.25;;
46757;SDS011;32509;47.750;-3.396;2022-09-27T02:15:00;5.50;;;2.17;;
46757;SDS011;32509;47.750;-3.396;2022-09-27T02:25:33;9.20;;;2.60;;
46757;SDS011;32509;47.750;-3.396;2022-09-27T02:30:46;7.80;;;2.38;;
46757;SDS011;32509;47.750;-3.396;2022-09-27T02:33:12;7.53;;;2.97;;
46757;SDS011;32509;47.750;-3.396;2022-09-27T02:35:38;7.60;;;2.03;;
46757;SDS011;32509;47.750;-3.396;2022-09-27T02:38:04;6.30;;;2.45;;
46757;SDS011;32509;47.750;-3.396;2022-09-27T02:40:33;10.90;;;3.03;;
46757;SDS011;32509;47.750;-3.396;2022-09-27T02:42:59;11.52;;;2.63;;
46757;SDS011;32509;47.750;-3.396;2022-09-27T02:45:31;7.63;;;2.33;;
46757;SDS011;32509;47.750;-3.396;2022-09-27T02:48:11;8.63;;;2.13;;
46757;SDS011;32509;47.750;-3.396;2022-09-27T02:50:46;8.05;;;2.35;;
46757;SDS011;32509;47.750;-3.396;2022-09-27T02:53:33;9.57;;;2.70;;
46757;SDS011;32509;47.750;-3.396;2022-09-27T03:01:01;10.60;;;2.85;;
46757;SDS011;32509;47.750;-3.396;2022-09-27T03:03:38;8.82;;;2.78;;
46757;SDS011;32509;47.750;-3.396;2022-09-27T03:06:08;9.50;;;2.20;;
46757;SDS011;32509;47.750;-3.396;2022-09-27T03:08:36;6.25;;;1.92;;
46757;SDS011;32509;47.750;-3.396;2022-09-27T03:11:02;7.97;;;2.47;;
46757;SDS011;32509;47.750;-3.396;2022-09-27T03:13:28;9.65;;;2.40;;
46757;SDS011;32509;47.750;-3.396;2022-09-27T03:15:55;6.20;;;2.20;;
46757;SDS011;32509;47.750;-3.396;2022-09-27T03:18:21;8.38;;;2.70;;
46757;SDS011;32509;47.750;-3.396;2022-09-27T03:20:47;8.48;;;2.33;;
46757;SDS011;32509;47.750;-3.396;2022-09-27T03:23:13;8.27;;;2.90;;
46757;SDS011;32509;47.750;-3.396;2022-09-27T03:25:39;5.28;;;1.85;;
46757;SDS011;32509;47.750;-3.396;2022-09-27T03:28:05;5.40;;;2.13;;
46757;SDS011;32509;47.750;-3.396;2022-09-27T03:30:32;8.25;;;2.17;;
46757;SDS011;32509;47.750;-3.396;2022-09-27T03:32:58;9.88;;;2.47;;
46757;SDS011;32509;47.750;-3.396;2022-09-27T03:35:25;10.02;;;3.40;;
46757;SDS011;32509;47.750;-3.396;2022-09-27T03:37:51;9.55;;;2.92;;
46757;SDS011;32509;47.750;-3.396;2022-09-27T03:40:17;9.00;;;2.42;;
46757;SDS011;32509;47.750;-3.396;2022-09-27T03:42:43;6.63;;;2.28;;
46757;SDS011;32509;47.750;-3.396;2022-09-27T03:45:09;10.70;;;2.50;;
46757;SDS011;32509;47.750;-3.396;2022-09-27T03:47:38;6.97;;;2.15;;
46757;SDS011;32509;47.750;-3.396;2022-09-27T03:50:05;13.15;;;3.80;;
46757;SDS011;32509;47.750;-3.396;2022-09-27T03:52:32;7.45;;;2.90;;
46757;SDS011;32509;47.750;-3.396;2022-09-27T03:54:58;7.18;;;2.38;;
46757;SDS011;32509;47.750;-3.396;2022-09-27T03:57:24;7.00;;;2.25;;
46757;SDS011;32509;47.750;-3.396;2022-09-27T03:59:50;6.28;;;2.63;;
46757;SDS011;32509;47.750;-3.396;2022-09-27T04:02:17;8.60;;;3.08;;
46757;SDS011;32509;47.750;-3.396;2022-09-27T04:04:43;7.53;;;2.50;;
46757;SDS011;32509;47.750;-3.396;2022-09-27T04:07:09;8.95;;;2.65;;
46757;SDS011;32509;47.750;-3.396;2022-09-27T04:09:35;7.30;;;2.67;;
46757;SDS011;32509;47.750;-3.396;2022-09-27T04:12:02;6.53;;;2.90;;
46757;SDS011;32509;47.750;-3.396;2022-09-27T04:14:28;7.50;;;2.35;;
46757;SDS011;32509;47.750;-3.396;2022-09-27T04:16:54;5.13;;;2.15;;
46757;SDS011;32509;47.750;-3.396;2022-09-27T04:19:20;8.18;;;3.22;;
46757;SDS011;32509;47.750;-3.396;2022-09-27T04:21:47;9.68;;;2.83;;
46757;SDS011;32509;47.750;-3.396;2022-09-27T04:24:13;6.60;;;1.90;;
46757;SDS011;32509;47.750;-3.396;2022-09-27T04:26:39;8.13;;;1.92;;
46757;SDS011;32509;47.750;-3.396;2022-09-27T04:29:05;6.80;;;2.25;;
46757;SDS011;32509;47.750;-3.396;2022-09-27T04:31:33;5.70;;;2.20;;
46757;SDS011;32509;47.750;-3.396;2022-09-27T04:34:00;5.72;;;1.83;;
46757;SDS011;32509;47.750;-3.396;2022-09-27T04:36:26;12.23;;;3.25;;
46757;SDS011;32509;47.750;-3.396;2022-09-27T04:38:56;8.25;;;2.80;;
46757;SDS011;32509;47.750;-3.396;2022-09-27T04:41:23;8.85;;;2.40;;
46757;SDS011;32509;47.750;-3.396;2022-09-27T04:43:53;8.57;;;2.28;;
46757;SDS011;32509;47.750;-3.396;2022-09-27T04:46:19;10.57;;;2.50;;
46757;SDS011;32509;47.750;-3.396;2022-09-27T04:48:46;11.68;;;3.42;;
46757;SDS011;32509;47.750;-3.396;2022-09-27T04:51:12;10.90;;;2.67;;
46757;SDS011;32509;47.750;-3.396;2022-09-27T04:53:40;5.72;;;2.15;;
46757;SDS011;32509;47.750;-3.396;2022-09-27T04:56:06;7.40;;;1.83;;
46757;SDS011;32509;47.750;-3.396;2022-09-27T04:58:33;7.00;;;2.65;;
46757;SDS011;32509;47.750;-3.396;2022-09-27T05:00:59;5.45;;;2.42;;
46757;SDS011;32509;47.750;-3.396;2022-09-27T05:03:27;5.40;;;2.20;;
46757;SDS011;32509;47.750;-3.396;2022-09-27T05:05:53;7.45;;;2.35;;
46757;SDS011;32509;47.750;-3.396;2022-09-27T05:08:19;6.93;;;2.25;;
46757;SDS011;32509;47.750;-3.396;2022-09-27T05:10:46;9.50;;;2.47;;
46757;SDS011;32509;47.750;-3.396;2022-09-27T05:13:12;5.68;;;2.17;;
46757;SDS011;32509;47.750;-3.396;2022-09-27T05:15:39;8.50;;;2.42;;
46757;SDS011;32509;47.750;-3.396;2022-09-27T05:18:05;9.40;;;2.58;;
46757;SDS011;32509;47.750;-3.396;2022-09-27T05:20:32;8.68;;;3.63;;
46757;SDS011;32509;47.750;-3.396;2022-09-27T05:22:59;9.30;;;3.25;;
46757;SDS011;32509;47.750;-3.396;2022-09-27T05:25:25;6.80;;;2.47;;
46757;SDS011;32509;47.750;-3.396;2022-09-27T05:27:51;7.43;;;2.35;;
46757;SDS011;32509;47.750;-3.396;2022-09-27T05:30:17;13.77;;;3.42;;
46757;SDS011;32509;47.750;-3.396;2022-09-27T05:32:44;5.25;;;1.83;;
46757;SDS011;32509;47.750;-3.396;2022-09-27T05:35:14;10.95;;;2.83;;
46757;SDS011;32509;47.750;-3.396;2022-09-27T05:37:41;14.18;;;3.08;;
46757;SDS011;32509;47.750;-3.396;2022-09-27T05:40:07;9.52;;;2.78;;
46757;SDS011;32509;47.750;-3.396;2022-09-27T05:42:33;8.93;;;2.47;;
46757;SDS011;32509;47.750;-3.396;2022-09-27T05:45:03;8.63;;;2.63;;
46757;SDS011;32509;47.750;-3.396;2022-09-27T05:47:31;11.40;;;2.55;;
46757;SDS011;32509;47.750;-3.396;2022-09-27T05:49:57;7.35;;;2.90;;
46757;SDS011;32509;47.750;-3.396;2022-09-27T05:52:23;8.40;;;2.85;;
46757;SDS011;32509;47.750;-3.396;2022-09-27T05:54:50;9.82;;;2.17;;
46757;SDS011;32509;47.750;-3.396;2022-09-27T05:57:16;7.60;;;2.92;;
46757;SDS011;32509;47.750;-3.396;2022-09-27T05:59:42;7.95;;;2.83;;
46757;SDS011;32509;47.750;-3.396;2022-09-27T06:02:12;6.75;;;3.05;;
46757;SDS011;32509;47.750;-3.396;2022-09-27T06:04:38;8.30;;;2.83;;
46757;SDS011;32509;47.750;-3.396;2022-09-27T06:07:04;10.43;;;3.40;;
46757;SDS011;32509;47.750;-3.396;2022-09-27T06:09:30;12.80;;;3.55;;
46757;SDS011;32509;47.750;-3.396;2022-09-27T06:11:56;8.63;;;3.13;;
46757;SDS011;32509;47.750;-3.396;2022-09-27T06:14:23;11.30;;;3.30;;
46757;SDS011;32509;47.750;-3.396;2022-09-27T06:16:49;8.52;;;2.90;;
46757;SDS011;32509;47.750;-3.396;2022-09-27T06:19:15;11.93;;;3.70;;
46757;SDS011;32509;47.750;-3.396;2022-09-27T06:21:41;9.60;;;3.28;;
46757;SDS011;32509;47.750;-3.396;2022-09-27T06:24:07;10.00;;;3.58;;
46757;SDS011;32509;47.750;-3.396;2022-09-27T06:26:34;10.10;;;3.03;;
46757;SDS011;32509;47.750;-3.396;2022-09-27T06:29:01;8.43;;;3.15;;
46757;SDS011;32509;47.750;-3.396;2022-09-27T06:31:27;14.13;;;3.03;;
46757;SDS011;32509;47.750;-3.396;2022-09-27T06:33:53;10.10;;;2.60;;
46757;SDS011;32509;47.750;-3.396;2022-09-27T06:36:19;13.52;;;3.55;;
46757;SDS011;32509;47.750;-3.396;2022-09-27T06:38:45;10.63;;;2.63;;
46757;SDS011;32509;47.750;-3.396;2022-09-27T06:41:13;8.75;;;4.10;;
46757;SDS011;32509;47.750;-3.396;2022-09-27T06:43:42;6.65;;;2.67;;
46757;SDS011;32509;47.750;-3.396;2022-09-27T06:46:09;14.68;;;3.78;;
46757;SDS011;32509;47.750;-3.396;2022-09-27T06:48:35;9.63;;;2.65;;
46757;SDS011;32509;47.750;-3.396;2022-09-27T06:51:02;10.98;;;2.83;;
46757;SDS011;32509;47.750;-3.396;2022-09-27T06:53:29;15.93;;;4.35;;
46757;SDS011;32509;47.750;-3.396;2022-09-27T06:55:58;15.30;;;4.82;;
46757;SDS011;32509;47.750;-3.396;2022-09-27T07:01:12;9.02;;;3.28;;
46757;SDS011;32509;47.750;-3.396;2022-09-27T07:03:39;11.25;;;3.30;;
46757;SDS011;32509;47.750;-3.396;2022-09-27T07:06:10;18.02;;;4.00;;
46757;SDS011;32509;47.750;-3.396;2022-09-27T07:08:39;13.07;;;2.85;;
46757;SDS011;32509;47.750;-3.396;2022-09-27T07:11:06;14.50;;;4.10;;
46757;SDS011;32509;47.750;-3.396;2022-09-27T07:13:32;15.63;;;4.22;;
46757;SDS011;32509;47.750;-3.396;2022-09-27T07:16:01;11.18;;;3.13;;
46757;SDS011;32509;47.750;-3.396;2022-09-27T07:18:27;13.45;;;3.47;;
46757;SDS011;32509;47.750;-3.396;2022-09-27T07:20:53;10.93;;;4.05;;
46757;SDS011;32509;47.750;-3.396;2022-09-27T07:23:20;16.75;;;4.05;;
46757;SDS011;32509;47.750;-3.396;2022-09-27T07:25:46;14.55;;;4.20;;
46757;SDS011;32509;47.750;-3.396;2022-09-27T07:28:14;13.45;;;4.40;;
46757;SDS011;32509;47.750;-3.396;2022-09-27T07:30:40;17.92;;;3.90;;
46757;SDS011;32509;47.750;-3.396;2022-09-27T07:33:07;13.25;;;3.35;;
46757;SDS011;32509;47.750;-3.396;2022-09-27T07:35:34;12.02;;;4.28;;
46757;SDS011;32509;47.750;-3.396;2022-09-27T07:38:04;18.80;;;5.20;;
46757;SDS011;32509;47.750;-3.396;2022-09-27T07:40:32;15.20;;;3.58;;
46757;SDS011;32509;47.750;-3.396;2022-09-27T07:42:58;19.00;;;6.57;;
46757;SDS011;32509;47.750;-3.396;2022-09-27T07:45:25;15.45;;;4.38;;
46757;SDS011;32509;47.750;-3.396;2022-09-27T07:47:51;13.40;;;4.00;;
46757;SDS011;32509;47.750;-3.396;2022-09-27T07:50:18;13.55;;;4.03;;
46757;SDS011;32509;47.750;-3.396;2022-09-27T07:52:45;16.13;;;4.28;;
46757;SDS011;32509;47.750;-3.396;2022-09-27T07:55:12;16.35;;;4.13;;
46757;SDS011;32509;47.750;-3.396;2022-09-27T07:57:38;12.75;;;4.47;;
46757;SDS011;32509;47.750;-3.396;2022-09-27T08:00:07;16.80;;;4.75;;
46757;SDS011;32509;47.750;-3.396;2022-09-27T08:02:34;18.23;;;5.45;;
46757;SDS011;32509;47.750;-3.396;2022-09-27T08:05:00;11.68;;;4.47;;
46757;SDS011;32509;47.750;-3.396;2022-09-27T08:07:27;18.00;;;4.85;;
46757;SDS011;32509;47.750;-3.396;2022-09-27T08:09:54;18.38;;;6.07;;
46757;SDS011;32509;47.750;-3.396;2022-09-27T08:12:20;16.38;;;5.13;;
46757;SDS011;32509;47.750;-3.396;2022-09-27T08:14:47;14.38;;;5.15;;
46757;SDS011;32509;47.750;-3.396;2022-09-27T08:17:13;16.38;;;5.22;;
46757;SDS011;32509;47.750;-3.396;2022-09-27T08:19:40;15.23;;;4.85;;
46757;SDS011;32509;47.750;-3.396;2022-09-27T08:22:06;16.52;;;4.70;;
46757;SDS011;32509;47.750;-3.396;2022-09-27T08:24:33;14.75;;;4.60;;
46757;SDS011;32509;47.750;-3.396;2022-09-27T08:26:59;16.15;;;5.35;;
46757;SDS011;32509;47.750;-3.396;2022-09-27T08:29:25;18.30;;;4.25;;
46757;SDS011;32509;47.750;-3.396;2022-09-27T08:31:51;17.63;;;4.97;;
46757;SDS011;32509;47.750;-3.396;2022-09-27T08:34:18;16.75;;;4.75;;
46757;SDS011;32509;47.750;-3.396;2022-09-27T08:36:45;22.63;;;5.70;;
46757;SDS011;32509;47.750;-3.396;2022-09-27T08:39:11;13.82;;;4.50;;
46757;SDS011;32509;47.750;-3.396;2022-09-27T08:41:43;15.77;;;5.80;;
46757;SDS011;32509;47.750;-3.396;2022-09-27T08:52:18;17.63;;;4.28;;
46757;SDS011;32509;47.750;-3.396;2022-09-27T08:54:45;18.13;;;5.53;;
46757;SDS011;32509;47.750;-3.396;2022-09-27T08:57:12;24.35;;;6.65;;
46757;SDS011;32509;47.750;-3.396;2022-09-27T08:59:39;17.27;;;5.25;;
46757;SDS011;32509;47.750;-3.396;2022-09-27T09:02:14;20.25;;;6.00;;
46757;SDS011;32509;47.750;-3.396;2022-09-27T09:04:42;19.10;;;4.75;;
46757;SDS011;32509;47.750;-3.396;2022-09-27T09:20:14;26.27;;;6.45;;
46757;SDS011;32509;47.750;-3.396;2022-09-27T09:25:37;15.20;;;5.32;;
46757;SDS011;32509;47.750;-3.396;2022-09-27T09:33:28;20.17;;;4.90;;
46757;SDS011;32509;47.750;-3.396;2022-09-27T09:38:35;16.88;;;5.72;;
46757;SDS011;32509;47.750;-3.396;2022-09-27T09:46:07;23.80;;;6.10;;
46757;SDS011;32509;47.750;-3.396;2022-09-27T09:48:48;26.00;;;7.65;;
46757;SDS011;32509;47.750;-3.396;2022-09-27T09:51:17;22.70;;;5.65;;
46757;SDS011;32509;47.750;-3.396;2022-09-27T09:54:04;24.30;;;6.53;;
46757;SDS011;32509;47.750;-3.396;2022-09-27T09:56:35;21.90;;;5.25;;
46757;SDS011;32509;47.750;-3.396;2022-09-27T09:59:04;21.75;;;5.82;;
46757;SDS011;32509;47.750;-3.396;2022-09-27T10:01:39;15.55;;;5.07;;
46757;SDS011;32509;47.750;-3.396;2022-09-27T10:04:07;21.30;;;5.22;;
46757;SDS011;32509;47.750;-3.396;2022-09-27T10:06:34;23.92;;;5.82;;
46757;SDS011;32509;47.750;-3.396;2022-09-27T10:09:00;18.67;;;5.60;;
46757;SDS011;32509;47.750;-3.396;2022-09-27T10:11:38;18.85;;;5.75;;
46757;SDS011;32509;47.750;-3.396;2022-09-27T10:14:04;22.08;;;6.40;;
46757;SDS011;32509;47.750;-3.396;2022-09-27T10:16:34;22.15;;;5.45;;
46757;SDS011;32509;47.750;-3.396;2022-09-27T10:19:00;17.13;;;5.95;;
46757;SDS011;32509;47.750;-3.396;2022-09-27T10:21:28;18.80;;;5.95;;
46757;SDS011;32509;47.750;-3.396;2022-09-27T10:26:28;24.73;;;6.20;;
46757;SDS011;32509;47.750;-3.396;2022-09-27T10:28:55;30.95;;;6.20;;
46757;SDS011;32509;47.750;-3.396;2022-09-27T10:31:21;18.83;;;5.88;;
46757;SDS011;32509;47.750;-3.396;2022-09-27T10:33:54;18.83;;;5.63;;
46757;SDS011;32509;47.750;-3.396;2022-09-27T10:36:29;23.75;;;6.20;;
46757;SDS011;32509;47.750;-3.396;2022-09-27T10:38:58;18.80;;;6.18;;
46757;SDS011;32509;47.750;-3.396;2022-09-27T10:41:31;19.33;;;5.60;;
46757;SDS011;32509;47.750;-3.396;2022-09-27T10:46:43;24.45;;;5.55;;
46757;SDS011;32509;47.750;-3.396;2022-09-27T10:51:41;20.27;;;5.57;;
46757;SDS011;32509;47.750;-3.396;2022-09-27T10:54:18;21.13;;;5.32;;
46757;SDS011;32509;47.750;-3.396;2022-09-27T10:56:44;15.63;;;4.50;;
46757;SDS011;32509;47.750;-3.396;2022-09-27T10:59:19;24.13;;;6.30;;
46757;SDS011;32509;47.750;-3.396;2022-09-27T11:01:45;21.98;;;4.75;;
46757;SDS011;32509;47.750;-3.396;2022-09-27T11:04:27;16.48;;;4.90;;
46757;SDS011;32509;47.750;-3.396;2022-09-27T11:09:49;18.17;;;4.90;;
46757;SDS011;32509;47.750;-3.396;2022-09-27T11:12:17;16.67;;;4.90;;
46757;SDS011;32509;47.750;-3.396;2022-09-27T11:14:49;18.77;;;4.68;;
46757;SDS011;32509;47.750;-3.396;2022-09-27T11:17:18;15.15;;;5.03;;
46757;SDS011;32509;47.750;-3.396;2022-09-27T11:19:56;16.77;;;4.60;;
46757;SDS011;32509;47.750;-3.396;2022-09-27T11:28:02;22.27;;;5.53;;
46757;SDS011;32509;47.750;-3.396;2022-09-27T11:30:33;14.68;;;4.50;;
46757;SDS011;32509;47.750;-3.396;2022-09-27T11:48:54;7.13;;;2.72;;
46757;SDS011;32509;47.750;-3.396;2022-09-27T11:59:11;10.57;;;2.78;;
46757;SDS011;32509;47.750;-3.396;2022-09-27T12:01:55;9.98;;;2.92;;
46757;SDS011;32509;47.750;-3.396;2022-09-27T12:04:30;10.55;;;3.22;;
46757;SDS011;32509;47.750;-3.396;2022-09-27T12:09:35;14.75;;;4.00;;
46757;SDS011;32509;47.750;-3.396;2022-09-27T12:12:10;13.15;;;4.10;;
46757;SDS011;32509;47.750;-3.396;2022-09-27T12:14:56;12.32;;;3.30;;
46757;SDS011;32509;47.750;-3.396;2022-09-27T12:17:25;15.23;;;4.10;;
46757;SDS011;32509;47.750;-3.396;2022-09-27T12:19:54;11.15;;;4.10;;
46757;SDS011;32509;47.750;-3.396;2022-09-27T12:22:24;17.40;;;4.90;;
46757;SDS011;32509;47.750;-3.396;2022-09-27T12:24:51;11.30;;;3.65;;
46757;SDS011;32509;47.750;-3.396;2022-09-27T12:27:20;14.40;;;4.13;;
46757;SDS011;32509;47.750;-3.396;2022-09-27T12:29:48;11.73;;;4.10;;
46757;SDS011;32509;47.750;-3.396;2022-09-27T12:35:02;17.00;;;5.57;;
46757;SDS011;32509;47.750;-3.396;2022-09-27T12:37:33;15.00;;;4.03;;
46757;SDS011;32509;47.750;-3.396;2022-09-27T12:42:40;14.40;;;4.93;;
46757;SDS011;32509;47.750;-3.396;2022-09-27T12:45:13;11.88;;;3.75;;
46757;SDS011;32509;47.750;-3.396;2022-09-27T12:47:47;12.50;;;3.72;;
46757;SDS011;32509;47.750;-3.396;2022-09-27T12:52:54;11.23;;;3.15;;
46757;SDS011;32509;47.750;-3.396;2022-09-27T13:00:19;7.20;;;3.13;;
46757;SDS011;32509;47.750;-3.396;2022-09-27T13:05:42;7.55;;;2.70;;
46757;SDS011;32509;47.750;-3.396;2022-09-27T13:13:39;5.72;;;1.90;;
46757;SDS011;32509;47.750;-3.396;2022-09-27T13:16:06;5.35;;;2.00;;
46757;SDS011;32509;47.750;-3.396;2022-09-27T13:21:06;5.13;;;2.30;;
46757;SDS011;32509;47.750;-3.396;2022-09-27T13:26:20;3.83;;;1.77;;
46757;SDS011;32509;47.750;-3.396;2022-09-27T13:31:13;5.22;;;2.22;;
46757;SDS011;32509;47.750;-3.396;2022-09-27T13:47:21;4.65;;;1.50;;
46757;SDS011;32509;47.750;-3.396;2022-09-27T13:49:50;3.97;;;1.60;;
46757;SDS011;32509;47.750;-3.396;2022-09-27T13:52:31;3.15;;;1.23;;
46757;SDS011;32509;47.750;-3.396;2022-09-27T13:54:59;3.65;;;1.15;;
46757;SDS011;32509;47.750;-3.396;2022-09-27T14:00:02;4.47;;;1.77;;
46757;SDS011;32509;47.750;-3.396;2022-09-27T14:02:30;7.60;;;2.03;;
46757;SDS011;32509;47.750;-3.396;2022-09-27T14:05:01;2.83;;;1.73;;
46757;SDS011;32509;47.750;-3.396;2022-09-27T14:07:39;2.90;;;1.42;;
46757;SDS011;32509;47.750;-3.396;2022-09-27T14:10:06;5.53;;;1.67;;
46757;SDS011;32509;47.750;-3.396;2022-09-27T14:12:38;4.55;;;1.85;;
46757;SDS011;32509;47.750;-3.396;2022-09-27T14:15:06;2.35;;;1.00;;
46757;SDS011;32509;47.750;-3.396;2022-09-27T14:17:33;3.00;;;1.08;;
46757;SDS011;32509;47.750;-3.396;2022-09-27T14:19:59;3.20;;;1.55;;
46757;SDS011;32509;47.750;-3.396;2022-09-27T14:22:27;1.85;;;0.80;;
46757;SDS011;32509;47.750;-3.396;2022-09-27T14:24:54;2.85;;;1.35;;
46757;SDS011;32509;47.750;-3.396;2022-09-27T14:27:21;4.10;;;1.52;;
46757;SDS011;32509;47.750;-3.396;2022-09-27T14:29:52;5.47;;;1.30;;
46757;SDS011;32509;47.750;-3.396;2022-09-27T14:32:24;3.35;;;0.90;;
46757;SDS011;32509;47.750;-3.396;2022-09-27T14:35:10;2.25;;;0.90;;
46757;SDS011;32509;47.750;-3.396;2022-09-27T14:37:59;1.85;;;0.63;;
46757;SDS011;32509;47.750;-3.396;2022-09-27T14:40:25;4.63;;;1.33;;
46757;SDS011;32509;47.750;-3.396;2022-09-27T14:42:53;3.25;;;1.42;;
46757;SDS011;32509;47.750;-3.396;2022-09-27T14:45:23;5.85;;;1.50;;
46757;SDS011;32509;47.750;-3.396;2022-09-27T14:47:51;7.20;;;1.55;;
46757;SDS011;32509;47.750;-3.396;2022-09-27T14:50:19;4.55;;;1.75;;
46757;SDS011;32509;47.750;-3.396;2022-09-27T14:52:46;5.47;;;1.88;;
46757;SDS011;32509;47.750;-3.396;2022-09-27T14:55:17;6.40;;;1.80;;
46757;SDS011;32509;47.750;-3.396;2022-09-27T14:58:00;6.68;;;1.88;;
46757;SDS011;32509;47.750;-3.396;2022-09-27T15:00:29;4.45;;;1.23;;
46757;SDS011;32509;47.750;-3.396;2022-09-27T15:02:57;6.20;;;1.70;;
46757;SDS011;32509;47.750;-3.396;2022-09-27T15:05:24;5.72;;;1.52;;
46757;SDS011;32509;47.750;-3.396;2022-09-27T15:07:51;2.25;;;1.33;;
46757;SDS011;32509;47.750;-3.396;2022-09-27T15:10:20;4.20;;;1.40;;
46757;SDS011;32509;47.750;-3.396;2022-09-27T15:12:50;3.72;;;1.40;;
46757;SDS011;32509;47.750;-3.396;2022-09-27T15:15:20;3.15;;;1.27;;
46757;SDS011;32509;47.750;-3.396;2022-09-27T15:17:47;4.80;;;1.40;;
46757;SDS011;32509;47.750;-3.396;2022-09-27T15:20:18;3.85;;;1.20;;
46757;SDS011;32509;47.750;-3.396;2022-09-27T15:22:46;2.85;;;1.17;;
46757;SDS011;32509;47.750;-3.396;2022-09-27T15:27:46;4.57;;;1.40;;
46757;SDS011;32509;47.750;-3.396;2022-09-27T15:30:15;3.70;;;1.40;;
46757;SDS011;32509;47.750;-3.396;2022-09-27T15:32:46;2.15;;;0.90;;
46757;SDS011;32509;47.750;-3.396;2022-09-27T15:35:20;2.92;;;1.20;;
46757;SDS011;32509;47.750;-3.396;2022-09-27T15:37:47;3.95;;;1.13;;
46757;SDS011;32509;47.750;-3.396;2022-09-27T15:42:56;2.47;;;0.90;;
46757;SDS011;32509;47.750;-3.396;2022-09-27T15:45:27;2.30;;;0.75;;
46757;SDS011;32509;47.750;-3.396;2022-09-27T15:47:54;1.15;;;0.50;;
46757;SDS011;32509;47.750;-3.396;2022-09-27T15:52:50;1.13;;;0.75;;
46757;SDS011;32509;47.750;-3.396;2022-09-27T15:55:17;1.30;;;0.70;;
46757;SDS011;32509;47.750;-3.396;2022-09-27T15:57:44;3.70;;;0.88;;
46757;SDS011;32509;47.750;-3.396;2022-09-27T16:00:15;1.30;;;0.70;;
46757;SDS011;32509;47.750;-3.396;2022-09-27T16:02:42;1.17;;;0.60;;
46757;SDS011;32509;47.750;-3.396;2022-09-27T16:05:08;1.23;;;0.60;;
46757;SDS011;32509;47.750;-3.396;2022-09-27T16:07:34;1.55;;;0.68;;
46757;SDS011;32509;47.750;-3.396;2022-09-27T16:10:00;1.10;;;0.45;;
46757;SDS011;32509;47.750;-3.396;2022-09-27T16:12:26;1.08;;;0.50;;
46757;SDS011;32509;47.750;-3.396;2022-09-27T16:14:55;2.35;;;1.02;;
46757;SDS011;32509;47.750;-3.396;2022-09-27T16:17:21;1.00;;;0.50;;
46757;SDS011;32509;47.750;-3.396;2022-09-27T16:19:47;0.98;;;0.50;;
46757;SDS011;32509;47.750;-3.396;2022-09-27T16:22:14;2.60;;;1.40;;
46757;SDS011;32509;47.750;-3.396;2022-09-27T16:24:40;2.22;;;0.80;;
46757;SDS011;32509;47.750;-3.396;2022-09-27T16:27:06;2.15;;;0.60;;
46757;SDS011;32509;47.750;-3.396;2022-09-27T16:29:32;1.83;;;0.88;;
46757;SDS011;32509;47.750;-3.396;2022-09-27T16:31:58;3.22;;;0.75;;
46757;SDS011;32509;47.750;-3.396;2022-09-27T16:34:25;3.80;;;1.00;;
46757;SDS011;32509;47.750;-3.396;2022-09-27T16:36:52;1.70;;;0.80;;
46757;SDS011;32509;47.750;-3.396;2022-09-27T16:39:18;2.35;;;0.80;;
46757;SDS011;32509;47.750;-3.396;2022-09-27T16:41:44;1.08;;;0.60;;
46757;SDS011;32509;47.750;-3.396;2022-09-27T16:44:11;3.45;;;1.48;;
46757;SDS011;32509;47.750;-3.396;2022-09-27T16:46:41;2.78;;;0.85;;
46757;SDS011;32509;47.750;-3.396;2022-09-27T16:49:10;2.50;;;0.88;;
46757;SDS011;32509;47.750;-3.396;2022-09-27T16:51:55;4.22;;;2.05;;
46757;SDS011;32509;47.750;-3.396;2022-09-27T16:54:24;2.75;;;1.00;;
46757;SDS011;32509;47.750;-3.396;2022-09-27T16:56:53;3.28;;;1.42;;
46757;SDS011;32509;47.750;-3.396;2022-09-27T16:59:19;3.83;;;1.20;;
46757;SDS011;32509;47.750;-3.396;2022-09-27T17:01:45;3.58;;;1.55;;
46757;SDS011;32509;47.750;-3.396;2022-09-27T17:04:11;3.40;;;1.27;;
46757;SDS011;32509;47.750;-3.396;2022-09-27T17:06:41;3.20;;;0.98;;
46757;SDS011;32509;47.750;-3.396;2022-09-27T17:09:07;3.47;;;0.88;;
46757;SDS011;32509;47.750;-3.396;2022-09-27T17:11:33;4.80;;;1.25;;
46757;SDS011;32509;47.750;-3.396;2022-09-27T17:13:59;3.33;;;1.52;;
46757;SDS011;32509;47.750;-3.396;2022-09-27T17:16:25;2.35;;;1.48;;
46757;SDS011;32509;47.750;-3.396;2022-09-27T17:18:55;2.67;;;0.98;;
46757;SDS011;32509;47.750;-3.396;2022-09-27T17:21:21;2.55;;;1.30;;
46757;SDS011;32509;47.750;-3.396;2022-09-27T17:23:47;5.00;;;1.33;;
46757;SDS011;32509;47.750;-3.396;2022-09-27T17:26:15;3.58;;;1.30;;
46757;SDS011;32509;47.750;-3.396;2022-09-27T17:28:41;5.25;;;1.40;;
46757;SDS011;32509;47.750;-3.396;2022-09-27T17:31:09;2.78;;;1.23;;